Time;durP1;ratioP1;P1;durP2;ratioP2;P2;SDS_P1;SDS_P2;PMS_P1;PMS_P2;Temp;Humidity;BMP_temperature;BMP_pressure;BME280_temperature;BME280_humidity;BME280_pressure;Samples;Min_cycle;Max_cycle;Signal;HPM_P1;HPM_P2
2021/01/03 00:01:07;;;;;;;44.53;27.20;;;22.60;33.90;;;;;;6076236;28;83527;-73
2021/01/03 00:04:07;;;;;;;44.78;27.77;;;22.60;34.10;;;;;;6075942;28;83158;-74
2021/01/03 00:07:08;;;;;;;42.35;26.92;;;22.60;34.10;;;;;;6077125;28;83815;-74
2021/01/03 00:10:09;;;;;;;47.22;30.08;;;22.60;34.00;;;;;;6076196;28;85364;-74
2021/01/03 00:13:09;;;;;;;47.38;28.70;;;22.60;33.80;;;;;;6066021;28;83738;-75
2021/01/03 00:16:10;;;;;;;52.13;31.55;;;22.50;33.70;;;;;;6060876;28;83194;-73
2021/01/03 00:19:10;;;;;;;40.15;27.58;;;22.50;33.80;;;;;;6076345;28;83079;-74
2021/01/03 00:22:11;;;;;;;50.67;29.75;;;22.50;33.70;;;;;;6053251;28;83239;-75
2021/01/03 00:25:11;;;;;;;50.63;29.92;;;22.50;33.70;;;;;;6055817;28;83437;-75
2021/01/03 00:28:12;;;;;;;48.35;30.15;;;22.50;33.60;;;;;;6074408;28;83411;-77
2021/01/03 00:31:12;;;;;;;48.08;30.08;;;22.50;33.50;;;;;;6077403;28;84120;-75
2021/01/03 00:34:13;;;;;;;54.30;30.25;;;22.50;34.10;;;;;;6067139;28;83306;-75
2021/01/03 00:37:13;;;;;;;47.08;28.90;;;22.50;33.60;;;;;;6077924;28;85266;-77
2021/01/03 00:40:14;;;;;;;52.70;30.77;;;22.50;33.60;;;;;;6068476;28;83518;-74
2021/01/03 00:43:14;;;;;;;47.75;29.40;;;22.50;33.50;;;;;;6074788;28;83056;-74
2021/01/03 00:46:15;;;;;;;50.00;29.83;;;22.50;33.50;;;;;;6087328;28;86247;-74
2021/01/03 00:49:16;;;;;;;50.08;27.92;;;22.40;33.40;;;;;;6088299;28;83329;-74
2021/01/03 00:52:16;;;;;;;46.45;28.98;;;22.40;33.40;;;;;;6101148;28;83400;-75
2021/01/03 00:55:17;;;;;;;45.97;29.65;;;22.40;33.40;;;;;;6098928;28;83297;-76
2021/01/03 00:58:17;;;;;;;42.60;28.10;;;22.40;33.30;;;;;;6094796;28;83573;-74
2021/01/03 01:01:18;;;;;;;45.53;27.35;;;22.50;33.40;;;;;;6101228;28;83839;-74
2021/01/03 01:04:18;;;;;;;47.03;27.85;;;22.40;33.30;;;;;;6094273;28;83177;-74
2021/01/03 01:07:19;;;;;;;46.20;26.75;;;22.40;33.40;;;;;;6093568;28;83228;-74
2021/01/03 01:10:21;;;;;;;47.88;28.60;;;22.40;33.30;;;;;;6098713;28;84041;-76
2021/01/03 01:13:22;;;;;;;45.70;27.67;;;22.40;33.50;;;;;;6094412;28;83409;-74
2021/01/03 01:16:22;;;;;;;45.17;28.58;;;22.40;33.50;;;;;;6116388;28;84361;-73
2021/01/03 01:19:23;;;;;;;44.70;27.85;;;22.40;33.30;;;;;;6088843;28;83828;-73
2021/01/03 01:22:23;;;;;;;44.00;27.90;;;22.40;33.50;;;;;;6095294;28;82996;-72
2021/01/03 01:25:24;;;;;;;41.97;27.52;;;22.40;33.40;;;;;;6084724;28;84185;-73
2021/01/03 01:28:24;;;;;;;39.58;24.48;;;22.40;33.80;;;;;;6097490;28;83126;-73
2021/01/03 01:31:25;;;;;;;43.03;27.10;;;22.40;33.90;;;;;;6073348;28;83534;-73
2021/01/03 01:34:25;;;;;;;38.05;24.23;;;22.40;33.80;;;;;;6097922;28;83235;-73
2021/01/03 01:37:26;;;;;;;40.67;26.20;;;22.30;33.80;;;;;;6098070;28;84306;-73
2021/01/03 01:40:26;;;;;;;43.83;26.13;;;22.30;34.10;;;;;;6099693;28;83680;-73
2021/01/03 01:43:27;;;;;;;43.20;24.40;;;22.30;35.30;;;;;;6093976;28;83095;-74
2021/01/03 01:46:27;;;;;;;39.47;24.85;;;22.30;34.30;;;;;;6096367;28;83391;-73
2021/01/03 01:49:28;;;;;;;37.53;23.67;;;22.30;34.20;;;;;;6096560;28;83166;-74
2021/01/03 01:52:29;;;;;;;42.83;25.40;;;22.30;34.40;;;;;;6100350;28;83225;-73
2021/01/03 01:55:29;;;;;;;42.83;26.45;;;22.30;34.20;;;;;;6093049;28;83368;-74
2021/01/03 01:58:30;;;;;;;44.05;26.95;;;22.30;34.40;;;;;;6100197;28;83285;-75
2021/01/03 02:01:30;;;;;;;47.75;28.52;;;22.30;34.40;;;;;;6094228;28;83870;-73
2021/01/03 02:04:31;;;;;;;47.58;26.83;;;22.30;34.30;;;;;;6092359;28;83217;-74
2021/01/03 02:07:31;;;;;;;46.35;28.95;;;22.20;34.40;;;;;;6096495;28;83687;-73
2021/01/03 02:10:32;;;;;;;46.00;28.58;;;22.20;34.10;;;;;;6086351;28;83534;-73
2021/01/03 02:13:32;;;;;;;52.80;29.75;;;22.20;34.30;;;;;;6087083;28;83880;-73
2021/01/03 02:16:33;;;;;;;49.65;29.83;;;22.20;34.30;;;;;;6096740;28;83519;-73
2021/01/03 02:19:33;;;;;;;50.90;30.05;;;22.20;34.30;;;;;;6089747;28;83346;-73
2021/01/03 02:22:34;;;;;;;51.47;30.00;;;22.20;34.20;;;;;;6091818;28;83445;-74
2021/01/03 02:25:35;;;;;;;50.70;29.75;;;22.20;34.20;;;;;;6096008;28;83083;-75
2021/01/03 02:28:35;;;;;;;53.50;31.90;;;22.20;34.20;;;;;;6099756;28;85243;-74
2021/01/03 02:31:36;;;;;;;50.85;30.95;;;22.20;34.20;;;;;;6070339;28;84480;-74
2021/01/03 02:34:36;;;;;;;50.05;29.35;;;22.20;34.00;;;;;;6103160;28;84619;-74
2021/01/03 02:37:37;;;;;;;50.03;27.98;;;22.20;34.00;;;;;;6100924;28;83083;-74
2021/01/03 02:40:37;;;;;;;45.80;27.08;;;22.20;34.00;;;;;;6099141;28;83303;-74
2021/01/03 02:43:38;;;;;;;49.40;27.42;;;22.20;34.00;;;;;;6103371;28;83209;-75
2021/01/03 02:46:38;;;;;;;47.55;28.17;;;22.20;34.70;;;;;;6095007;28;83140;-73
2021/01/03 02:49:39;;;;;;;44.92;26.08;;;22.20;34.20;;;;;;6102488;28;85405;-73
2021/01/03 02:52:39;;;;;;;47.92;26.13;;;22.20;34.10;;;;;;6094070;28;83195;-74
2021/01/03 02:55:40;;;;;;;50.28;26.45;;;22.20;34.00;;;;;;6100206;28;83080;-73
2021/01/03 02:58:40;;;;;;;44.83;26.17;;;22.20;34.20;;;;;;6101668;28;83421;-73
2021/01/03 03:01:41;;;;;;;45.58;25.30;;;22.20;34.30;;;;;;6092493;28;86159;-73
2021/01/03 03:04:41;;;;;;;42.42;24.77;;;22.30;34.20;;;;;;6092060;28;83164;-74
2021/01/03 03:07:42;;;;;;;48.33;26.50;;;22.30;34.40;;;;;;6090174;28;83264;-73
2021/01/03 03:10:42;;;;;;;44.80;25.77;;;22.30;34.30;;;;;;6094165;28;83717;-73
2021/01/03 03:13:43;;;;;;;50.05;26.58;;;22.20;34.10;;;;;;6102684;28;83627;-74
2021/01/03 03:16:43;;;;;;;49.85;26.45;;;22.20;34.20;;;;;;6103349;28;84959;-74
2021/01/03 03:19:44;;;;;;;50.35;27.67;;;22.30;34.50;;;;;;6095309;28;86358;-73
2021/01/03 03:22:44;;;;;;;47.90;27.65;;;22.30;34.40;;;;;;6097318;28;83019;-73
2021/01/03 03:25:45;;;;;;;52.33;27.23;;;22.20;34.30;;;;;;6101946;28;84488;-73
2021/01/03 03:28:45;;;;;;;49.58;27.52;;;22.30;34.30;;;;;;6103638;28;83519;-74
2021/01/03 03:31:46;;;;;;;44.65;24.98;;;22.20;35.00;;;;;;6099432;28;83452;-73
2021/01/03 03:34:46;;;;;;;44.60;26.17;;;22.20;34.40;;;;;;6082777;28;83357;-73
2021/01/03 03:37:47;;;;;;;49.50;28.20;;;22.20;34.10;;;;;;6100087;28;85108;-73
2021/01/03 03:40:47;;;;;;;49.20;27.85;;;22.20;34.30;;;;;;6098771;28;83363;-74
2021/01/03 03:43:48;;;;;;;48.97;27.83;;;22.20;34.20;;;;;;6098991;28;83867;-73
2021/01/03 03:46:48;;;;;;;48.80;28.95;;;22.20;34.30;;;;;;6093814;28;83234;-73
2021/01/03 03:49:49;;;;;;;49.25;27.67;;;22.20;34.30;;;;;;6093171;28;83406;-73
2021/01/03 03:52:49;;;;;;;47.30;26.98;;;22.20;34.30;;;;;;6090320;28;83553;-74
2021/01/03 03:55:50;;;;;;;49.08;27.65;;;22.20;34.20;;;;;;6097452;28;85429;-74
2021/01/03 03:58:50;;;;;;;50.45;29.30;;;22.20;34.20;;;;;;6092496;28;83635;-74
2021/01/03 04:01:51;;;;;;;53.28;28.92;;;22.10;34.20;;;;;;6094891;28;83752;-73
2021/01/03 04:04:51;;;;;;;49.83;29.90;;;22.10;34.10;;;;;;6098744;28;83578;-74
2021/01/03 04:07:52;;;;;;;48.20;27.48;;;22.10;34.10;;;;;;6100315;28;83869;-72
2021/01/03 04:10:52;;;;;;;48.33;28.08;;;22.10;34.10;;;;;;6093891;28;83291;-74
2021/01/03 04:13:53;;;;;;;52.10;27.83;;;22.10;34.10;;;;;;6110792;28;84472;-73
2021/01/03 04:16:53;;;;;;;47.50;27.30;;;22.10;34.20;;;;;;6097404;28;83678;-73
2021/01/03 04:19:54;;;;;;;48.00;26.48;;;22.10;33.90;;;;;;6095173;28;82962;-74
2021/01/03 04:22:54;;;;;;;45.20;25.73;;;22.10;34.00;;;;;;6097577;28;83088;-75
2021/01/03 04:25:55;;;;;;;52.58;28.45;;;22.10;34.10;;;;;;6100655;28;83148;-77
2021/01/03 04:28:55;;;;;;;49.28;27.40;;;22.10;33.80;;;;;;6094009;28;82983;-76
2021/01/03 04:31:56;;;;;;;47.72;26.60;;;22.10;34.10;;;;;;6085426;28;83350;-76
2021/01/03 04:34:56;;;;;;;42.83;25.58;;;22.10;34.20;;;;;;6089703;28;83382;-75
2021/01/03 04:37:57;;;;;;;44.45;25.38;;;22.10;34.20;;;;;;6092395;28;83342;-76
2021/01/03 04:40:57;;;;;;;47.28;26.67;;;22.10;34.10;;;;;;6087090;28;83747;-75
2021/01/03 04:43:58;;;;;;;46.30;25.98;;;22.10;34.20;;;;;;6092814;28;84640;-75
2021/01/03 04:46:58;;;;;;;44.17;24.45;;;22.10;34.00;;;;;;6084990;28;83255;-75
2021/01/03 04:49:59;;;;;;;46.17;25.58;;;22.10;34.10;;;;;;6073577;28;83306;-73
2021/01/03 04:52:59;;;;;;;40.83;23.23;;;22.10;33.90;;;;;;6087107;28;83681;-74
2021/01/03 04:56:00;;;;;;;45.58;24.45;;;22.10;34.00;;;;;;6099841;28;83397;-74
2021/01/03 04:59:00;;;;;;;43.45;24.52;;;22.10;33.80;;;;;;6095885;28;82976;-73
2021/01/03 05:02:01;;;;;;;46.28;23.88;;;22.10;34.00;;;;;;6098832;28;83515;-74
2021/01/03 05:05:01;;;;;;;45.38;24.88;;;22.10;33.80;;;;;;6097256;28;83185;-74
2021/01/03 05:08:02;;;;;;;45.65;25.98;;;22.10;33.60;;;;;;6097750;28;84056;-74
2021/01/03 05:11:03;;;;;;;44.38;24.38;;;22.10;33.50;;;;;;6093550;28;83439;-73
2021/01/03 05:14:03;;;;;;;43.00;25.92;;;22.10;33.30;;;;;;6091493;28;83076;-73
2021/01/03 05:17:04;;;;;;;45.13;25.65;;;22.20;33.10;;;;;;6101925;28;82917;-74
2021/01/03 05:20:04;;;;;;;46.97;26.92;;;22.20;32.60;;;;;;6101965;28;83782;-73
2021/01/03 05:23:05;;;;;;;49.53;25.58;;;22.20;32.10;;;;;;6095563;28;83416;-73
2021/01/03 05:26:05;;;;;;;46.42;25.02;;;22.30;32.20;;;;;;6096987;28;83143;-74
2021/01/03 05:29:06;;;;;;;46.33;26.00;;;22.30;32.30;;;;;;6101205;28;83552;-74
2021/01/03 05:32:06;;;;;;;44.45;24.73;;;22.40;32.20;;;;;;6087680;28;84460;-74
2021/01/03 05:35:07;;;;;;;45.75;25.90;;;22.40;32.00;;;;;;6092604;28;87318;-74
2021/01/03 05:38:07;;;;;;;44.83;25.13;;;22.40;31.90;;;;;;6098541;28;83404;-73
2021/01/03 05:41:08;;;;;;;45.85;25.80;;;22.40;31.90;;;;;;6094486;28;83584;-73
2021/01/03 05:44:08;;;;;;;41.97;23.65;;;22.40;32.40;;;;;;6100888;28;83320;-76
2021/01/03 05:47:09;;;;;;;40.60;24.80;;;22.50;31.70;;;;;;6091424;28;83445;-75
2021/01/03 05:50:09;;;;;;;41.92;24.98;;;22.60;31.60;;;;;;6102495;28;83768;-76
2021/01/03 05:53:10;;;;;;;42.17;25.50;;;22.60;31.40;;;;;;6098194;28;83178;-78
2021/01/03 05:56:10;;;;;;;45.45;25.27;;;22.60;31.30;;;;;;6094215;28;83055;-76
2021/01/03 05:59:11;;;;;;;43.20;26.33;;;22.60;31.50;;;;;;6095572;28;83684;-75
2021/01/03 06:02:11;;;;;;;45.90;27.02;;;22.60;31.60;;;;;;6101898;28;83617;-76
2021/01/03 06:05:12;;;;;;;49.40;27.42;;;22.60;31.70;;;;;;6100623;28;83249;-78
2021/01/03 06:08:13;;;;;;;49.63;28.10;;;22.70;31.80;;;;;;6101977;28;83559;-71
2021/01/03 06:11:13;;;;;;;45.88;27.00;;;22.70;31.90;;;;;;6103025;28;83207;-73
2021/01/03 06:14:14;;;;;;;45.03;27.17;;;22.70;31.90;;;;;;6092043;28;82876;-71
2021/01/03 06:17:14;;;;;;;50.17;27.98;;;22.70;31.90;;;;;;6102514;28;83219;-71
2021/01/03 06:20:15;;;;;;;43.05;26.48;;;22.70;31.80;;;;;;6088683;28;83770;-73
2021/01/03 06:23:15;;;;;;;39.78;23.05;;;22.80;32.40;;;;;;6102311;28;83317;-76
2021/01/03 06:26:16;;;;;;;35.10;21.48;;;22.80;34.30;;;;;;6100812;28;83137;-72
2021/01/03 06:29:16;;;;;;;32.33;18.95;;;22.80;35.50;;;;;;6091221;28;83283;-67
2021/01/03 06:32:17;;;;;;;33.60;17.55;;;22.80;36.10;;;;;;6102085;28;83328;-72
2021/01/03 06:35:17;;;;;;;26.42;15.00;;;22.80;37.00;;;;;;6102483;28;83333;-71
2021/01/03 06:38:18;;;;;;;25.08;14.55;;;22.80;37.20;;;;;;6092254;28;83858;-72
2021/01/03 06:41:18;;;;;;;28.60;14.40;;;22.80;37.70;;;;;;6104029;28;83058;-71
2021/01/03 06:44:19;;;;;;;24.13;12.63;;;22.90;38.30;;;;;;6091210;28;83362;-72
2021/01/03 06:47:19;;;;;;;25.30;12.05;;;22.80;38.90;;;;;;6101356;28;83434;-70
2021/01/03 06:50:20;;;;;;;20.40;12.30;;;22.90;39.60;;;;;;6096332;28;83432;-70
2021/01/03 06:53:20;;;;;;;19.58;11.82;;;22.90;39.60;;;;;;6101394;28;83595;-71
2021/01/03 06:56:21;;;;;;;19.33;11.63;;;22.90;39.90;;;;;;6099085;28;82756;-72
2021/01/03 06:59:21;;;;;;;21.77;11.90;;;23.00;39.80;;;;;;6101788;28;83351;-71
2021/01/03 07:02:22;;;;;;;24.48;12.25;;;23.00;40.50;;;;;;6089578;28;90260;-64
2021/01/03 07:05:22;;;;;;;24.60;12.32;;;23.00;41.20;;;;;;6099161;28;87636;-72
2021/01/03 07:08:23;;;;;;;22.02;12.18;;;23.00;41.00;;;;;;6093826;28;89708;-71
2021/01/03 07:11:24;;;;;;;21.98;12.32;;;23.00;41.50;;;;;;6096562;28;83639;-72
2021/01/03 07:14:24;;;;;;;21.38;11.95;;;23.10;41.60;;;;;;6102969;28;82770;-72
2021/01/03 07:17:25;;;;;;;22.42;12.38;;;23.10;42.00;;;;;;6102075;28;83496;-72
2021/01/03 07:20:25;;;;;;;21.58;11.75;;;23.10;42.20;;;;;;6092087;28;83308;-73
2021/01/03 07:23:26;;;;;;;25.42;13.02;;;23.10;42.30;;;;;;6085341;28;83312;-70
2021/01/03 07:26:26;;;;;;;21.63;11.63;;;23.10;42.20;;;;;;6101809;28;83409;-77
2021/01/03 07:29:27;;;;;;;21.58;12.40;;;23.10;42.10;;;;;;6100015;28;84052;-74
2021/01/03 07:32:27;;;;;;;22.60;12.23;;;23.20;42.00;;;;;;6097890;28;83491;-74
2021/01/03 07:35:28;;;;;;;20.13;11.30;;;23.10;41.80;;;;;;6097706;28;83390;-72
2021/01/03 07:38:28;;;;;;;20.63;11.60;;;23.10;42.10;;;;;;6090330;28;83124;-74
2021/01/03 07:41:29;;;;;;;24.42;12.35;;;23.20;42.20;;;;;;6100605;28;85138;-73
2021/01/03 07:44:29;;;;;;;20.45;11.80;;;23.10;42.20;;;;;;6099478;28;84012;-76
2021/01/03 07:47:30;;;;;;;24.23;12.13;;;23.10;42.10;;;;;;6086122;28;84072;-73
2021/01/03 07:50:30;;;;;;;21.33;12.65;;;23.10;42.10;;;;;;6110927;28;83401;-73
2021/01/03 07:53:34;;;;;;;20.08;11.48;;;23.10;42.00;;;;;;6095671;28;84715;-75
2021/01/03 07:56:34;;;;;;;18.65;11.20;;;23.10;42.50;;;;;;6093935;28;82993;-77
2021/01/03 07:59:35;;;;;;;20.25;11.82;;;23.10;42.50;;;;;;6099747;28;83304;-75
2021/01/03 08:02:35;;;;;;;18.90;11.18;;;23.10;42.60;;;;;;6096237;28;83911;-73
2021/01/03 08:05:36;;;;;;;22.98;11.40;;;23.10;42.90;;;;;;6096794;28;83382;-76
2021/01/03 08:08:36;;;;;;;19.55;10.63;;;23.10;43.30;;;;;;6094167;28;83402;-74
2021/01/03 08:11:37;;;;;;;18.13;10.02;;;23.10;43.20;;;;;;6089908;28;84812;-76
2021/01/03 08:14:37;;;;;;;20.23;10.82;;;23.10;43.30;;;;;;6096375;28;84080;-74
2021/01/03 08:17:38;;;;;;;19.42;10.52;;;23.10;43.40;;;;;;6094963;28;83733;-72
2021/01/03 08:20:38;;;;;;;24.38;11.75;;;23.20;43.50;;;;;;6095344;28;83406;-72
2021/01/03 08:23:39;;;;;;;17.25;9.70;;;23.20;43.60;;;;;;6096689;28;83359;-74
2021/01/03 08:26:39;;;;;;;18.48;9.90;;;23.20;43.70;;;;;;6098343;28;82960;-73
2021/01/03 08:29:40;;;;;;;19.30;10.63;;;23.20;43.70;;;;;;6097653;28;81734;-72
2021/01/03 08:32:41;;;;;;;17.08;10.07;;;23.20;43.90;;;;;;6095925;28;83769;-75
2021/01/03 08:35:41;;;;;;;17.83;10.63;;;23.10;43.70;;;;;;6094558;28;82985;-73
2021/01/03 08:38:42;;;;;;;18.52;10.52;;;23.10;43.50;;;;;;6094715;28;84602;-75
2021/01/03 08:41:42;;;;;;;21.25;10.35;;;23.10;43.40;;;;;;6101128;28;83387;-74
2021/01/03 08:44:43;;;;;;;16.90;10.10;;;23.00;43.80;;;;;;6093790;28;85029;-75
2021/01/03 08:47:43;;;;;;;18.95;10.27;;;23.00;44.30;;;;;;6100650;28;83824;-75
2021/01/03 08:50:44;;;;;;;15.85;9.15;;;23.00;44.60;;;;;;6095543;28;83283;-69
2021/01/03 08:53:44;;;;;;;18.40;9.85;;;23.00;45.00;;;;;;6095908;28;81726;-77
2021/01/03 08:56:45;;;;;;;23.02;10.15;;;23.00;45.20;;;;;;6095831;28;80977;-72
2021/01/03 08:59:45;;;;;;;21.13;10.40;;;23.00;45.10;;;;;;6089786;28;83460;-75
2021/01/03 09:02:46;;;;;;;22.98;9.23;;;23.00;44.90;;;;;;6090875;28;83459;-75
2021/01/03 09:05:46;;;;;;;20.30;10.05;;;23.00;44.80;;;;;;6103889;28;83037;-75
2021/01/03 09:08:47;;;;;;;17.77;9.70;;;22.90;44.70;;;;;;6095995;28;84620;-73
2021/01/03 09:11:48;;;;;;;16.77;9.15;;;22.90;44.50;;;;;;6100056;28;84339;-72
2021/01/03 09:14:48;;;;;;;16.75;8.80;;;22.90;44.70;;;;;;6087592;28;80785;-73
2021/01/03 09:17:49;;;;;;;20.95;9.65;;;22.90;45.50;;;;;;6098384;28;81050;-70
2021/01/03 09:20:49;;;;;;;20.55;10.88;;;22.80;45.90;;;;;;6100842;28;81208;-60
2021/01/03 09:23:50;;;;;;;17.65;10.38;;;22.90;45.20;;;;;;6091990;28;83698;-61
2021/01/03 09:26:50;;;;;;;17.73;10.38;;;22.90;45.80;;;;;;6097706;28;83949;-60
2021/01/03 09:29:52;;;;;;;20.17;10.63;;;22.90;46.10;;;;;;6091327;28;83200;-62
2021/01/03 09:32:53;;;;;;;18.83;11.00;;;22.90;46.50;;;;;;6096437;28;83450;-60
2021/01/03 09:35:53;;;;;;;19.98;11.27;;;22.80;46.60;;;;;;6101181;28;83398;-60
2021/01/03 09:38:54;;;;;;;17.50;10.63;;;22.80;46.60;;;;;;6097344;28;83154;-60
2021/01/03 09:41:54;;;;;;;21.30;11.07;;;22.80;46.90;;;;;;6092219;28;84858;-60
2021/01/03 09:44:55;;;;;;;22.23;12.35;;;22.80;46.90;;;;;;6099863;28;83545;-61
2021/01/03 09:47:55;;;;;;;19.63;10.23;;;22.80;47.00;;;;;;6099500;28;82960;-60
2021/01/03 09:50:56;;;;;;;21.35;11.45;;;22.80;47.30;;;;;;6095935;28;82647;-60
2021/01/03 09:53:56;;;;;;;18.60;10.60;;;22.80;47.00;;;;;;6102876;28;83358;-60
2021/01/03 09:56:57;;;;;;;19.63;11.13;;;22.80;47.50;;;;;;6092711;28;83468;-60
2021/01/03 09:59:57;;;;;;;22.27;11.52;;;22.80;47.50;;;;;;6101486;28;85392;-60
2021/01/03 10:02:58;;;;;;;19.73;10.88;;;22.90;47.80;;;;;;6102145;28;83286;-60
2021/01/03 10:05:58;;;;;;;21.25;12.27;;;22.90;47.60;;;;;;6102331;28;83208;-61
2021/01/03 10:08:59;;;;;;;19.38;11.18;;;22.90;48.00;;;;;;6101560;28;83031;-59
2021/01/03 10:11:59;;;;;;;20.85;12.32;;;22.90;48.60;;;;;;6097522;28;83871;-61
2021/01/03 10:15:00;;;;;;;20.40;11.07;;;22.90;48.70;;;;;;6095725;28;83412;-61
2021/01/03 10:18:00;;;;;;;22.35;10.57;;;22.90;48.80;;;;;;6086746;28;84054;-60
2021/01/03 10:21:01;;;;;;;19.05;10.13;;;22.90;48.30;;;;;;6100932;28;83530;-62
2021/01/03 10:24:01;;;;;;;19.88;10.25;;;23.00;48.20;;;;;;6095064;28;84105;-61
2021/01/03 10:27:02;;;;;;;19.60;9.73;;;23.00;47.90;;;;;;6095404;28;93277;-60
2021/01/03 10:30:02;;;;;;;16.67;9.40;;;23.00;47.80;;;;;;6105412;28;83932;-60
2021/01/03 10:33:03;;;;;;;17.42;10.35;;;23.00;47.90;;;;;;6104182;28;80823;-60
2021/01/03 10:36:03;;;;;;;15.82;9.63;;;23.00;46.70;;;;;;6101189;28;83146;-62
2021/01/03 10:39:04;;;;;;;18.25;11.15;;;23.10;46.90;;;;;;6105254;28;82816;-61
2021/01/03 10:42:05;;;;;;;17.02;9.75;;;23.00;46.60;;;;;;6100311;28;83350;-62
2021/01/03 10:45:05;;;;;;;18.80;10.25;;;23.00;46.50;;;;;;6105685;28;82944;-62
2021/01/03 10:48:05;;;;;;;20.40;10.77;;;23.00;46.30;;;;;;6097872;28;83130;-62
2021/01/03 10:51:06;;;;;;;17.95;10.93;;;22.90;46.00;;;;;;6098784;28;83580;-61
2021/01/03 10:54:07;;;;;;;20.33;10.25;;;22.90;45.80;;;;;;6092045;28;83883;-72
2021/01/03 10:57:07;;;;;;;20.42;11.18;;;23.00;45.80;;;;;;6099938;28;82821;-72
2021/01/03 11:00:08;;;;;;;19.63;10.98;;;23.00;45.40;;;;;;6100603;28;86959;-71
2021/01/03 11:03:08;;;;;;;24.60;11.70;;;23.00;45.40;;;;;;6088211;28;83487;-70
2021/01/03 11:06:09;;;;;;;23.45;12.10;;;23.00;45.50;;;;;;6088245;28;83130;-69
2021/01/03 11:09:09;;;;;;;19.75;10.38;;;23.10;45.90;;;;;;6090045;28;83894;-70
2021/01/03 11:12:10;;;;;;;18.00;10.45;;;23.10;45.60;;;;;;6088385;28;83978;-69
2021/01/03 11:15:10;;;;;;;20.77;10.88;;;23.10;45.50;;;;;;6090642;28;83510;-70
2021/01/03 11:18:11;;;;;;;22.50;12.68;;;23.10;45.40;;;;;;6098540;28;83830;-70
2021/01/03 11:21:11;;;;;;;21.73;13.20;;;23.10;44.90;;;;;;6089468;28;83267;-72
2021/01/03 11:24:12;;;;;;;23.73;13.75;;;23.10;44.40;;;;;;6098829;28;83215;-72
2021/01/03 11:27:13;;;;;;;23.30;14.10;;;23.20;44.50;;;;;;6102783;28;83007;-70
2021/01/03 11:30:13;;;;;;;24.98;14.55;;;23.20;44.10;;;;;;6097682;28;83160;-70
2021/01/03 11:33:14;;;;;;;24.33;14.15;;;23.20;43.50;;;;;;6089190;28;84139;-68
2021/01/03 11:36:17;;;;;;;29.42;14.88;;;23.20;43.60;;;;;;6087615;28;83142;-68
2021/01/03 11:39:17;;;;;;;25.08;15.10;;;23.30;43.50;;;;;;6102121;28;83375;-68
2021/01/03 11:42:18;;;;;;;29.02;15.63;;;23.40;42.70;;;;;;6100563;28;83670;-71
2021/01/03 11:45:18;;;;;;;25.75;15.35;;;23.40;41.90;;;;;;6098781;28;83632;-68
2021/01/03 11:48:19;;;;;;;31.27;17.35;;;23.50;41.10;;;;;;6100524;28;82987;-69
2021/01/03 11:51:19;;;;;;;28.25;16.00;;;23.50;40.20;;;;;;6093705;28;83783;-60
2021/01/03 11:54:20;;;;;;;28.50;16.92;;;23.50;39.60;;;;;;6095310;28;83483;-62
2021/01/03 11:57:20;;;;;;;27.33;17.42;;;23.50;39.60;;;;;;6096456;28;83144;-61
2021/01/03 12:00:21;;;;;;;27.98;17.08;;;23.50;39.20;;;;;;6096383;28;83203;-60
2021/01/03 12:03:21;;;;;;;31.95;17.55;;;23.50;38.90;;;;;;6090008;28;83568;-61
2021/01/03 12:06:22;;;;;;;30.70;17.27;;;23.50;38.60;;;;;;6113562;28;84267;-61
2021/01/03 12:09:22;;;;;;;29.38;17.73;;;23.50;38.30;;;;;;6097672;28;85265;-60
2021/01/03 12:12:23;;;;;;;32.25;18.50;;;23.50;37.90;;;;;;6097853;28;83659;-60
2021/01/03 12:15:24;;;;;;;30.90;18.42;;;23.50;37.70;;;;;;6099919;28;84664;-61
2021/01/03 12:18:24;;;;;;;31.50;18.95;;;23.60;37.70;;;;;;6096080;28;83141;-61
2021/01/03 12:21:25;;;;;;;34.25;19.55;;;23.60;37.60;;;;;;6088554;28;84998;-60
2021/01/03 12:24:25;;;;;;;32.17;19.20;;;23.60;37.10;;;;;;6093679;28;83087;-60
2021/01/03 12:27:26;;;;;;;29.63;18.10;;;23.60;36.90;;;;;;6088724;28;83874;-65
2021/01/03 12:30:26;;;;;;;31.42;18.17;;;23.60;36.60;;;;;;6086617;28;82926;-63
2021/01/03 12:33:27;;;;;;;32.95;18.35;;;23.60;36.50;;;;;;6096154;28;84902;-62
2021/01/03 12:36:27;;;;;;;31.77;19.70;;;23.50;36.20;;;;;;6099340;28;83597;-65
2021/01/03 12:39:28;;;;;;;27.58;17.77;;;23.50;35.90;;;;;;6095652;28;83603;-61
2021/01/03 12:42:28;;;;;;;34.20;18.20;;;23.50;35.70;;;;;;6093654;28;83161;-61
2021/01/03 12:45:29;;;;;;;33.40;17.38;;;23.40;35.40;;;;;;6089986;28;82950;-60
2021/01/03 12:48:30;;;;;;;32.95;19.45;;;23.50;35.00;;;;;;6091113;28;84253;-60
2021/01/03 12:51:30;;;;;;;29.70;17.73;;;23.40;35.00;;;;;;6098513;28;83441;-60
2021/01/03 12:54:31;;;;;;;27.63;17.50;;;23.40;35.00;;;;;;6094979;28;83563;-59
2021/01/03 12:57:32;;;;;;;27.83;16.25;;;23.40;34.40;;;;;;6094929;28;83684;-60
2021/01/03 13:00:32;;;;;;;30.85;18.30;;;23.40;34.40;;;;;;6097641;28;83916;-59
2021/01/03 13:03:34;;;;;;;32.53;20.30;;;23.30;34.20;;;;;;6112627;28;83362;-60
2021/01/03 13:06:35;;;;;;;36.75;21.25;;;23.30;34.10;;;;;;6098637;28;83904;-69
2021/01/03 13:09:35;;;;;;;33.25;20.55;;;23.40;33.60;;;;;;6095676;28;83731;-69
2021/01/03 13:12:36;;;;;;;32.90;21.10;;;23.50;33.40;;;;;;6094328;28;83870;-67
2021/01/03 13:15:36;;;;;;;38.20;20.88;;;23.50;33.10;;;;;;6094546;28;83647;-72
2021/01/03 13:18:37;;;;;;;34.60;19.13;;;23.50;32.90;;;;;;6092504;28;84162;-73
2021/01/03 13:21:37;;;;;;;29.17;19.13;;;23.60;33.00;;;;;;6098446;28;83206;-74
2021/01/03 13:24:38;;;;;;;29.45;18.17;;;23.60;33.00;;;;;;6092099;28;84325;-72
2021/01/03 13:27:38;;;;;;;29.70;17.70;;;23.50;33.10;;;;;;6098227;28;84025;-72
2021/01/03 13:30:39;;;;;;;26.95;16.60;;;23.50;33.20;;;;;;6095071;28;83384;-72
2021/01/03 13:33:39;;;;;;;27.02;16.00;;;23.40;33.10;;;;;;6099365;28;83534;-72
2021/01/03 13:36:40;;;;;;;28.25;17.33;;;23.40;33.20;;;;;;6090393;28;83455;-71
2021/01/03 13:39:40;;;;;;;27.73;17.08;;;23.40;33.20;;;;;;6090258;28;83559;-72
2021/01/03 13:42:41;;;;;;;22.83;15.60;;;23.40;33.40;;;;;;6096377;28;83365;-72
2021/01/03 13:45:41;;;;;;;27.35;16.55;;;23.40;33.70;;;;;;6114068;28;85665;-73
2021/01/03 13:48:42;;;;;;;26.05;16.10;;;23.40;33.60;;;;;;6088926;28;83490;-73
2021/01/03 13:51:42;;;;;;;26.73;15.50;;;23.40;33.50;;;;;;6097984;28;83543;-72
2021/01/03 13:54:43;;;;;;;24.25;15.63;;;23.40;33.40;;;;;;6098050;28;83649;-73
2021/01/03 13:57:43;;;;;;;27.23;16.10;;;23.40;33.30;;;;;;6089657;28;83444;-73
2021/01/03 14:00:44;;;;;;;24.45;15.43;;;23.40;33.30;;;;;;6086063;28;84388;-74
2021/01/03 14:03:44;;;;;;;24.58;14.75;;;23.40;33.10;;;;;;6094669;28;83372;-72
2021/01/03 14:06:45;;;;;;;24.00;14.43;;;23.50;33.40;;;;;;6090780;28;84617;-79
2021/01/03 14:09:45;;;;;;;23.00;14.20;;;23.50;33.40;;;;;;6089562;28;83459;-74
2021/01/03 14:12:46;;;;;;;23.05;14.13;;;23.60;33.80;;;;;;6095295;28;83889;-73
2021/01/03 14:15:46;;;;;;;24.45;14.70;;;23.60;34.00;;;;;;6096042;28;83159;-76
2021/01/03 14:18:48;;;;;;;26.83;15.32;;;23.60;34.10;;;;;;6104514;28;83649;-72
2021/01/03 14:21:48;;;;;;;26.92;16.95;;;23.50;34.50;;;;;;6104797;28;84428;-73
2021/01/03 14:24:49;;;;;;;26.60;17.75;;;23.50;33.90;;;;;;6100895;28;83315;-73
2021/01/03 14:27:49;;;;;;;30.17;17.98;;;23.60;33.90;;;;;;6102731;28;83517;-75
2021/01/03 14:30:50;;;;;;;35.25;19.55;;;23.50;33.80;;;;;;6100052;28;83942;-73
2021/01/03 14:33:50;;;;;;;30.70;19.35;;;23.50;33.90;;;;;;6098909;28;82996;-73
2021/01/03 14:36:51;;;;;;;30.25;19.13;;;23.50;34.00;;;;;;6100117;28;84032;-73
2021/01/03 14:39:52;;;;;;;31.05;20.48;;;23.50;33.80;;;;;;6092914;28;83984;-75
2021/01/03 14:42:52;;;;;;;32.15;21.42;;;23.40;33.90;;;;;;6100026;28;83721;-73
2021/01/03 14:45:53;;;;;;;36.88;22.88;;;23.40;34.00;;;;;;6091950;28;83362;-73
2021/01/03 14:48:53;;;;;;;36.40;22.25;;;23.40;34.30;;;;;;6099541;28;84885;-70
2021/01/03 14:51:54;;;;;;;38.83;23.42;;;23.40;35.00;;;;;;6076289;28;83351;-73
2021/01/03 14:54:54;;;;;;;39.28;23.63;;;23.50;34.80;;;;;;6100270;28;84198;-74
2021/01/03 14:57:55;;;;;;;41.97;23.33;;;23.50;35.10;;;;;;6100063;28;82941;-73
2021/01/03 15:00:55;;;;;;;42.08;25.13;;;23.40;35.40;;;;;;6090581;28;84203;-69
2021/01/03 15:03:56;;;;;;;42.22;26.27;;;23.40;35.40;;;;;;6100651;28;83054;-70
2021/01/03 15:06:56;;;;;;;45.03;27.40;;;23.40;35.80;;;;;;6096523;28;83381;-69
2021/01/03 15:09:57;;;;;;;51.50;29.25;;;23.40;35.90;;;;;;6087700;28;85825;-71
2021/01/03 15:12:57;;;;;;;54.72;29.88;;;23.40;36.80;;;;;;6100338;28;83237;-69
2021/01/03 15:15:58;;;;;;;58.28;29.95;;;23.40;37.40;;;;;;6097751;28;83290;-69